sensor_id;sensor_type;location;lat;lon;timestamp;P1;durP1;ratioP1;P2;durP2;ratioP2
75191;SDS011;63771;52.580;9.734;2023-02-28T00:01:31;7.38;;;6.75;;
75191;SDS011;63771;52.580;9.734;2023-02-28T00:03:57;8.18;;;5.78;;
75191;SDS011;63771;52.580;9.734;2023-02-28T00:06:22;9.50;;;7.15;;
75191;SDS011;63771;52.580;9.734;2023-02-28T00:08:49;14.07;;;5.78;;
75191;SDS011;63771;52.580;9.734;2023-02-28T00:11:14;7.15;;;5.50;;
75191;SDS011;63771;52.580;9.734;2023-02-28T00:13:41;11.48;;;5.82;;
75191;SDS011;63771;52.580;9.734;2023-02-28T00:16:12;12.80;;;5.22;;
75191;SDS011;63771;52.580;9.734;2023-02-28T00:18:40;10.20;;;5.65;;
75191;SDS011;63771;52.580;9.734;2023-02-28T00:21:06;6.07;;;5.50;;
75191;SDS011;63771;52.580;9.734;2023-02-28T00:23:32;8.77;;;5.40;;
75191;SDS011;63771;52.580;9.734;2023-02-28T00:25:57;6.57;;;5.35;;
75191;SDS011;63771;52.580;9.734;2023-02-28T00:28:23;7.50;;;5.93;;
75191;SDS011;63771;52.580;9.734;2023-02-28T00:30:48;9.13;;;7.13;;
75191;SDS011;63771;52.580;9.734;2023-02-28T00:33:14;7.82;;;5.97;;
75191;SDS011;63771;52.580;9.734;2023-02-28T00:35:39;6.15;;;5.55;;
75191;SDS011;63771;52.580;9.734;2023-02-28T00:38:05;6.25;;;5.50;;
75191;SDS011;63771;52.580;9.734;2023-02-28T00:40:30;6.47;;;5.22;;
75191;SDS011;63771;52.580;9.734;2023-02-28T00:42:56;6.68;;;5.53;;
75191;SDS011;63771;52.580;9.734;2023-02-28T00:45:21;7.43;;;6.13;;
75191;SDS011;63771;52.580;9.734;2023-02-28T00:47:46;11.30;;;5.63;;
75191;SDS011;63771;52.580;9.734;2023-02-28T00:50:14;5.65;;;5.15;;
75191;SDS011;63771;52.580;9.734;2023-02-28T00:52:43;6.10;;;5.32;;
75191;SDS011;63771;52.580;9.734;2023-02-28T00:55:09;8.52;;;7.70;;
75191;SDS011;63771;52.580;9.734;2023-02-28T00:57:34;6.07;;;5.47;;
75191;SDS011;63771;52.580;9.734;2023-02-28T00:59:59;8.18;;;6.50;;
75191;SDS011;63771;52.580;9.734;2023-02-28T01:02:25;6.10;;;4.63;;
75191;SDS011;63771;52.580;9.734;2023-02-28T01:04:50;8.00;;;5.03;;
75191;SDS011;63771;52.580;9.734;2023-02-28T01:07:15;7.90;;;6.47;;
75191;SDS011;63771;52.580;9.734;2023-02-28T01:09:41;6.50;;;5.10;;
75191;SDS011;63771;52.580;9.734;2023-02-28T01:12:07;6.07;;;5.45;;
75191;SDS011;63771;52.580;9.734;2023-02-28T01:14:33;9.93;;;5.13;;
75191;SDS011;63771;52.580;9.734;2023-02-28T01:16:59;6.65;;;4.88;;
75191;SDS011;63771;52.580;9.734;2023-02-28T01:19:25;5.95;;;4.72;;
75191;SDS011;63771;52.580;9.734;2023-02-28T01:21:50;6.83;;;5.13;;
75191;SDS011;63771;52.580;9.734;2023-02-28T01:24:15;5.70;;;4.50;;
75191;SDS011;63771;52.580;9.734;2023-02-28T01:26:41;6.23;;;5.33;;
75191;SDS011;63771;52.580;9.734;2023-02-28T01:29:06;9.20;;;5.35;;
75191;SDS011;63771;52.580;9.734;2023-02-28T01:31:31;6.57;;;4.53;;
75191;SDS011;63771;52.580;9.734;2023-02-28T01:33:57;8.43;;;4.68;;
75191;SDS011;63771;52.580;9.734;2023-02-28T01:36:23;6.33;;;5.70;;
75191;SDS011;63771;52.580;9.734;2023-02-28T01:38:49;7.70;;;5.15;;
75191;SDS011;63771;52.580;9.734;2023-02-28T01:41:17;8.40;;;4.78;;
75191;SDS011;63771;52.580;9.734;2023-02-28T01:46:10;5.20;;;4.70;;
75191;SDS011;63771;52.580;9.734;2023-02-28T01:48:38;6.53;;;5.22;;
75191;SDS011;63771;52.580;9.734;2023-02-28T01:51:11;5.63;;;4.35;;
75191;SDS011;63771;52.580;9.734;2023-02-28T01:53:44;6.75;;;4.97;;
75191;SDS011;63771;52.580;9.734;2023-02-28T01:56:12;7.78;;;6.85;;
75191;SDS011;63771;52.580;9.734;2023-02-28T01:58:45;6.05;;;5.60;;
75191;SDS011;63771;52.580;9.734;2023-02-28T02:01:18;5.65;;;4.10;;
75191;SDS011;63771;52.580;9.734;2023-02-28T02:03:51;6.95;;;5.25;;
75191;SDS011;63771;52.580;9.734;2023-02-28T02:06:23;6.93;;;6.25;;
75191;SDS011;63771;52.580;9.734;2023-02-28T02:08:50;6.05;;;4.90;;
75191;SDS011;63771;52.580;9.734;2023-02-28T02:11:17;6.80;;;4.63;;
75191;SDS011;63771;52.580;9.734;2023-02-28T02:19:49;5.68;;;5.22;;
75191;SDS011;63771;52.580;9.734;2023-02-28T02:25:11;5.38;;;4.88;;
75191;SDS011;63771;52.580;9.734;2023-02-28T02:30:33;5.13;;;4.70;;
75191;SDS011;63771;52.580;9.734;2023-02-28T02:33:26;6.95;;;4.57;;
75191;SDS011;63771;52.580;9.734;2023-02-28T02:36:22;4.20;;;3.72;;
75191;SDS011;63771;52.580;9.734;2023-02-28T02:44:13;4.03;;;3.63;;
75191;SDS011;63771;52.580;9.734;2023-02-28T02:46:45;4.38;;;4.07;;
75191;SDS011;63771;52.580;9.734;2023-02-28T02:49:32;4.35;;;4.05;;
75191;SDS011;63771;52.580;9.734;2023-02-28T02:52:02;4.07;;;3.67;;
75191;SDS011;63771;52.580;9.734;2023-02-28T02:54:32;3.90;;;3.60;;
75191;SDS011;63771;52.580;9.734;2023-02-28T02:57:03;4.13;;;3.90;;
75191;SDS011;63771;52.580;9.734;2023-02-28T02:59:33;5.32;;;4.60;;
75191;SDS011;63771;52.580;9.734;2023-02-28T03:04:34;4.15;;;3.22;;
75191;SDS011;63771;52.580;9.734;2023-02-28T03:07:05;5.30;;;3.97;;
75191;SDS011;63771;52.580;9.734;2023-02-28T03:09:32;4.18;;;3.83;;
75191;SDS011;63771;52.580;9.734;2023-02-28T03:11:58;4.60;;;3.55;;
75191;SDS011;63771;52.580;9.734;2023-02-28T03:17:32;5.40;;;3.65;;
75191;SDS011;63771;52.580;9.734;2023-02-28T03:23:08;4.60;;;4.20;;
75191;SDS011;63771;52.580;9.734;2023-02-28T03:37:10;4.22;;;3.92;;
75191;SDS011;63771;52.580;9.734;2023-02-28T03:39:44;4.50;;;4.20;;
75191;SDS011;63771;52.580;9.734;2023-02-28T03:42:23;3.80;;;3.50;;
75191;SDS011;63771;52.580;9.734;2023-02-28T03:44:54;5.13;;;4.38;;
75191;SDS011;63771;52.580;9.734;2023-02-28T03:47:33;4.15;;;3.83;;
75191;SDS011;63771;52.580;9.734;2023-02-28T03:50:21;6.20;;;3.28;;
75191;SDS011;63771;52.580;9.734;2023-02-28T03:52:57;4.15;;;3.85;;
75191;SDS011;63771;52.580;9.734;2023-02-28T03:55:30;5.43;;;4.00;;
75191;SDS011;63771;52.580;9.734;2023-02-28T04:00:56;4.05;;;3.75;;
75191;SDS011;63771;52.580;9.734;2023-02-28T04:03:32;3.13;;;2.92;;
75191;SDS011;63771;52.580;9.734;2023-02-28T04:05:59;4.72;;;4.32;;
75191;SDS011;63771;52.580;9.734;2023-02-28T04:08:25;3.03;;;2.83;;
75191;SDS011;63771;52.580;9.734;2023-02-28T04:10:53;3.93;;;3.30;;
75191;SDS011;63771;52.580;9.734;2023-02-28T04:13:22;3.78;;;3.47;;
75191;SDS011;63771;52.580;9.734;2023-02-28T04:15:48;4.60;;;4.20;;
75191;SDS011;63771;52.580;9.734;2023-02-28T04:18:13;4.87;;;3.73;;
75191;SDS011;63771;52.580;9.734;2023-02-28T04:20:38;5.00;;;3.47;;
75191;SDS011;63771;52.580;9.734;2023-02-28T04:23:03;3.87;;;3.50;;
75191;SDS011;63771;52.580;9.734;2023-02-28T04:25:29;5.38;;;4.50;;
75191;SDS011;63771;52.580;9.734;2023-02-28T04:27:54;4.43;;;3.90;;
75191;SDS011;63771;52.580;9.734;2023-02-28T04:30:19;4.37;;;4.07;;
75191;SDS011;63771;52.580;9.734;2023-02-28T04:32:45;4.57;;;3.87;;
75191;SDS011;63771;52.580;9.734;2023-02-28T04:35:10;3.97;;;3.53;;
75191;SDS011;63771;52.580;9.734;2023-02-28T04:37:35;4.90;;;3.57;;
75191;SDS011;63771;52.580;9.734;2023-02-28T04:40:02;4.07;;;3.35;;
75191;SDS011;63771;52.580;9.734;2023-02-28T04:42:29;4.18;;;3.78;;
75191;SDS011;63771;52.580;9.734;2023-02-28T04:45:03;4.28;;;3.88;;
75191;SDS011;63771;52.580;9.734;2023-02-28T04:47:29;3.75;;;3.45;;
75191;SDS011;63771;52.580;9.734;2023-02-28T04:49:54;5.35;;;3.92;;
75191;SDS011;63771;52.580;9.734;2023-02-28T04:52:20;6.18;;;5.60;;
75191;SDS011;63771;52.580;9.734;2023-02-28T04:54:45;6.88;;;4.43;;
75191;SDS011;63771;52.580;9.734;2023-02-28T04:57:10;3.43;;;2.87;;
75191;SDS011;63771;52.580;9.734;2023-02-28T04:59:36;7.00;;;4.63;;
75191;SDS011;63771;52.580;9.734;2023-02-28T05:02:01;4.05;;;3.65;;
75191;SDS011;63771;52.580;9.734;2023-02-28T05:04:32;4.53;;;4.13;;
75191;SDS011;63771;52.580;9.734;2023-02-28T05:06:59;6.75;;;6.30;;
75191;SDS011;63771;52.580;9.734;2023-02-28T05:09:25;4.88;;;4.38;;
75191;SDS011;63771;52.580;9.734;2023-02-28T05:11:50;5.53;;;4.45;;
75191;SDS011;63771;52.580;9.734;2023-02-28T05:14:16;5.22;;;4.78;;
75191;SDS011;63771;52.580;9.734;2023-02-28T05:16:41;3.90;;;3.60;;
75191;SDS011;63771;52.580;9.734;2023-02-28T05:19:07;4.45;;;4.15;;
75191;SDS011;63771;52.580;9.734;2023-02-28T05:21:33;5.00;;;4.50;;
75191;SDS011;63771;52.580;9.734;2023-02-28T05:24:04;5.53;;;4.28;;
75191;SDS011;63771;52.580;9.734;2023-02-28T05:26:34;7.80;;;4.88;;
75191;SDS011;63771;52.580;9.734;2023-02-28T05:29:01;6.90;;;6.47;;
75191;SDS011;63771;52.580;9.734;2023-02-28T05:31:27;4.77;;;3.87;;
75191;SDS011;63771;52.580;9.734;2023-02-28T05:33:52;4.07;;;3.73;;
75191;SDS011;63771;52.580;9.734;2023-02-28T05:36:18;4.75;;;4.47;;
75191;SDS011;63771;52.580;9.734;2023-02-28T05:38:45;7.40;;;6.90;;
75191;SDS011;63771;52.580;9.734;2023-02-28T05:41:12;4.97;;;4.57;;
75191;SDS011;63771;52.580;9.734;2023-02-28T05:43:38;4.20;;;3.80;;
75191;SDS011;63771;52.580;9.734;2023-02-28T05:46:04;6.77;;;6.23;;
75191;SDS011;63771;52.580;9.734;2023-02-28T05:48:30;5.07;;;4.57;;
75191;SDS011;63771;52.580;9.734;2023-02-28T05:50:57;6.45;;;5.07;;
75191;SDS011;63771;52.580;9.734;2023-02-28T05:53:23;5.15;;;4.85;;
75191;SDS011;63771;52.580;9.734;2023-02-28T05:55:48;6.13;;;4.63;;
75191;SDS011;63771;52.580;9.734;2023-02-28T05:58:13;4.10;;;3.85;;
75191;SDS011;63771;52.580;9.734;2023-02-28T06:00:39;5.78;;;5.38;;
75191;SDS011;63771;52.580;9.734;2023-02-28T06:03:04;5.80;;;4.75;;
75191;SDS011;63771;52.580;9.734;2023-02-28T06:05:30;5.88;;;5.38;;
75191;SDS011;63771;52.580;9.734;2023-02-28T06:07:55;5.87;;;4.97;;
75191;SDS011;63771;52.580;9.734;2023-02-28T06:10:20;6.18;;;5.65;;
75191;SDS011;63771;52.580;9.734;2023-02-28T06:12:46;10.02;;;5.13;;
75191;SDS011;63771;52.580;9.734;2023-02-28T06:15:12;5.57;;;5.13;;
75191;SDS011;63771;52.580;9.734;2023-02-28T06:17:39;5.75;;;5.10;;
75191;SDS011;63771;52.580;9.734;2023-02-28T06:20:05;6.57;;;5.25;;
75191;SDS011;63771;52.580;9.734;2023-02-28T06:22:32;7.07;;;6.47;;
75191;SDS011;63771;52.580;9.734;2023-02-28T06:24:57;5.38;;;4.30;;
75191;SDS011;63771;52.580;9.734;2023-02-28T06:27:23;5.80;;;4.65;;
75191;SDS011;63771;52.580;9.734;2023-02-28T06:29:48;5.43;;;4.85;;
75191;SDS011;63771;52.580;9.734;2023-02-28T06:32:14;7.72;;;4.95;;
75191;SDS011;63771;52.580;9.734;2023-02-28T06:34:39;9.43;;;5.97;;
75191;SDS011;63771;52.580;9.734;2023-02-28T06:37:04;7.90;;;5.70;;
75191;SDS011;63771;52.580;9.734;2023-02-28T06:39:30;15.98;;;7.95;;
75191;SDS011;63771;52.580;9.734;2023-02-28T06:41:56;14.77;;;8.13;;
75191;SDS011;63771;52.580;9.734;2023-02-28T06:44:22;20.25;;;6.95;;
75191;SDS011;63771;52.580;9.734;2023-02-28T06:46:48;18.35;;;7.22;;
75191;SDS011;63771;52.580;9.734;2023-02-28T06:49:13;11.93;;;7.95;;
75191;SDS011;63771;52.580;9.734;2023-02-28T06:51:40;10.32;;;6.18;;
75191;SDS011;63771;52.580;9.734;2023-02-28T06:54:06;9.93;;;7.53;;
75191;SDS011;63771;52.580;9.734;2023-02-28T06:56:34;12.30;;;6.03;;
75191;SDS011;63771;52.580;9.734;2023-02-28T06:58:59;12.10;;;7.80;;
75191;SDS011;63771;52.580;9.734;2023-02-28T07:01:25;8.52;;;4.60;;
75191;SDS011;63771;52.580;9.734;2023-02-28T07:03:52;9.13;;;4.93;;
75191;SDS011;63771;52.580;9.734;2023-02-28T07:06:18;9.32;;;5.90;;
75191;SDS011;63771;52.580;9.734;2023-02-28T07:08:45;8.10;;;5.60;;
75191;SDS011;63771;52.580;9.734;2023-02-28T07:11:11;8.10;;;5.28;;
75191;SDS011;63771;52.580;9.734;2023-02-28T07:13:36;5.70;;;5.13;;
75191;SDS011;63771;52.580;9.734;2023-02-28T07:16:05;6.88;;;4.88;;
75191;SDS011;63771;52.580;9.734;2023-02-28T07:18:33;5.78;;;4.97;;
75191;SDS011;63771;52.580;9.734;2023-02-28T07:21:01;4.90;;;4.43;;
75191;SDS011;63771;52.580;9.734;2023-02-28T07:23:27;8.40;;;4.78;;
75191;SDS011;63771;52.580;9.734;2023-02-28T07:25:53;8.03;;;7.33;;
75191;SDS011;63771;52.580;9.734;2023-02-28T07:28:18;6.17;;;5.43;;
75191;SDS011;63771;52.580;9.734;2023-02-28T07:30:44;9.45;;;8.57;;
75191;SDS011;63771;52.580;9.734;2023-02-28T07:33:09;8.07;;;6.50;;
75191;SDS011;63771;52.580;9.734;2023-02-28T07:35:34;5.80;;;5.30;;
75191;SDS011;63771;52.580;9.734;2023-02-28T07:38:00;7.82;;;6.13;;
75191;SDS011;63771;52.580;9.734;2023-02-28T07:40:26;7.05;;;5.88;;
75191;SDS011;63771;52.580;9.734;2023-02-28T07:42:52;8.32;;;6.13;;
75191;SDS011;63771;52.580;9.734;2023-02-28T07:45:17;7.65;;;6.90;;
75191;SDS011;63771;52.580;9.734;2023-02-28T07:47:43;9.70;;;8.50;;
75191;SDS011;63771;52.580;9.734;2023-02-28T07:50:10;10.23;;;7.63;;
75191;SDS011;63771;52.580;9.734;2023-02-28T07:52:37;14.93;;;8.48;;
75191;SDS011;63771;52.580;9.734;2023-02-28T07:55:03;7.55;;;6.13;;
75191;SDS011;63771;52.580;9.734;2023-02-28T07:57:30;9.65;;;7.13;;
75191;SDS011;63771;52.580;9.734;2023-02-28T07:59:55;15.68;;;8.68;;
75191;SDS011;63771;52.580;9.734;2023-02-28T08:02:20;16.13;;;9.03;;
75191;SDS011;63771;52.580;9.734;2023-02-28T08:04:46;15.80;;;9.17;;
75191;SDS011;63771;52.580;9.734;2023-02-28T08:07:12;15.23;;;9.20;;
75191;SDS011;63771;52.580;9.734;2023-02-28T08:09:39;21.83;;;10.90;;
75191;SDS011;63771;52.580;9.734;2023-02-28T08:12:09;13.02;;;9.43;;
75191;SDS011;63771;52.580;9.734;2023-02-28T08:14:35;10.10;;;8.32;;
75191;SDS011;63771;52.580;9.734;2023-02-28T08:17:00;5.97;;;5.47;;
75191;SDS011;63771;52.580;9.734;2023-02-28T08:19:26;4.97;;;4.20;;
75191;SDS011;63771;52.580;9.734;2023-02-28T08:21:51;5.35;;;4.65;;
75191;SDS011;63771;52.580;9.734;2023-02-28T08:24:17;3.83;;;3.43;;
75191;SDS011;63771;52.580;9.734;2023-02-28T08:26:42;6.63;;;4.67;;
75191;SDS011;63771;52.580;9.734;2023-02-28T08:29:07;5.32;;;4.82;;
75191;SDS011;63771;52.580;9.734;2023-02-28T08:31:33;4.60;;;4.27;;
75191;SDS011;63771;52.580;9.734;2023-02-28T08:34:00;4.43;;;4.00;;
75191;SDS011;63771;52.580;9.734;2023-02-28T08:36:29;5.45;;;3.88;;
75191;SDS011;63771;52.580;9.734;2023-02-28T08:38:54;6.32;;;4.40;;
75191;SDS011;63771;52.580;9.734;2023-02-28T08:41:21;6.00;;;4.45;;
75191;SDS011;63771;52.580;9.734;2023-02-28T08:43:46;5.03;;;4.32;;
75191;SDS011;63771;52.580;9.734;2023-02-28T08:46:12;4.40;;;3.93;;
75191;SDS011;63771;52.580;9.734;2023-02-28T08:48:39;4.07;;;3.75;;
75191;SDS011;63771;52.580;9.734;2023-02-28T08:51:09;5.10;;;4.40;;
75191;SDS011;63771;52.580;9.734;2023-02-28T08:53:36;3.85;;;3.58;;
75191;SDS011;63771;52.580;9.734;2023-02-28T08:56:04;6.15;;;4.10;;
75191;SDS011;63771;52.580;9.734;2023-02-28T08:58:48;5.82;;;4.32;;
75191;SDS011;63771;52.580;9.734;2023-02-28T09:01:18;5.25;;;4.70;;
75191;SDS011;63771;52.580;9.734;2023-02-28T09:03:45;5.35;;;4.30;;
75191;SDS011;63771;52.580;9.734;2023-02-28T09:06:12;4.38;;;3.75;;
75191;SDS011;63771;52.580;9.734;2023-02-28T09:08:39;4.53;;;4.13;;
75191;SDS011;63771;52.580;9.734;2023-02-28T09:11:04;4.40;;;4.00;;
75191;SDS011;63771;52.580;9.734;2023-02-28T09:13:30;5.85;;;3.35;;
75191;SDS011;63771;52.580;9.734;2023-02-28T09:15:57;3.53;;;3.17;;
75191;SDS011;63771;52.580;9.734;2023-02-28T09:18:24;3.70;;;3.38;;
75191;SDS011;63771;52.580;9.734;2023-02-28T09:20:50;3.60;;;3.30;;
75191;SDS011;63771;52.580;9.734;2023-02-28T09:23:15;3.10;;;2.80;;
75191;SDS011;63771;52.580;9.734;2023-02-28T09:25:48;3.05;;;2.85;;
75191;SDS011;63771;52.580;9.734;2023-02-28T09:30:44;2.95;;;2.75;;
75191;SDS011;63771;52.580;9.734;2023-02-28T09:33:10;2.80;;;2.60;;
75191;SDS011;63771;52.580;9.734;2023-02-28T09:35:35;4.07;;;3.77;;
75191;SDS011;63771;52.580;9.734;2023-02-28T09:38:02;3.22;;;2.75;;
75191;SDS011;63771;52.580;9.734;2023-02-28T09:40:28;3.78;;;3.47;;
75191;SDS011;63771;52.580;9.734;2023-02-28T09:42:55;4.13;;;3.03;;
75191;SDS011;63771;52.580;9.734;2023-02-28T09:47:59;3.58;;;3.28;;
75191;SDS011;63771;52.580;9.734;2023-02-28T09:50:36;3.78;;;2.92;;
75191;SDS011;63771;52.580;9.734;2023-02-28T09:56:18;4.28;;;2.55;;
75191;SDS011;63771;52.580;9.734;2023-02-28T09:59:10;3.25;;;2.53;;
75191;SDS011;63771;52.580;9.734;2023-02-28T10:07:01;2.67;;;1.92;;
75191;SDS011;63771;52.580;9.734;2023-02-28T10:09:32;2.75;;;2.35;;
75191;SDS011;63771;52.580;9.734;2023-02-28T10:12:00;1.95;;;1.85;;
75191;SDS011;63771;52.580;9.734;2023-02-28T10:14:34;2.05;;;1.85;;
75191;SDS011;63771;52.580;9.734;2023-02-28T10:17:17;2.60;;;2.38;;
75191;SDS011;63771;52.580;9.734;2023-02-28T10:19:50;2.17;;;2.08;;
75191;SDS011;63771;52.580;9.734;2023-02-28T10:22:34;2.42;;;2.00;;
75191;SDS011;63771;52.580;9.734;2023-02-28T10:25:17;2.03;;;1.90;;
75191;SDS011;63771;52.580;9.734;2023-02-28T10:27:44;1.70;;;1.63;;
75191;SDS011;63771;52.580;9.734;2023-02-28T10:30:10;1.70;;;1.60;;
75191;SDS011;63771;52.580;9.734;2023-02-28T10:32:37;1.85;;;1.73;;
75191;SDS011;63771;52.580;9.734;2023-02-28T10:35:10;1.88;;;1.55;;
75191;SDS011;63771;52.580;9.734;2023-02-28T10:37:41;1.73;;;1.63;;
75191;SDS011;63771;52.580;9.734;2023-02-28T10:45:30;1.95;;;1.85;;
75191;SDS011;63771;52.580;9.734;2023-02-28T10:48:10;1.50;;;1.40;;
75191;SDS011;63771;52.580;9.734;2023-02-28T10:50:52;1.85;;;1.70;;
75191;SDS011;63771;52.580;9.734;2023-02-28T11:04:18;1.52;;;1.42;;
75191;SDS011;63771;52.580;9.734;2023-02-28T11:09:46;1.60;;;1.50;;
75191;SDS011;63771;52.580;9.734;2023-02-28T11:12:25;2.78;;;2.67;;
75191;SDS011;63771;52.580;9.734;2023-02-28T11:14:57;1.95;;;1.60;;
75191;SDS011;63771;52.580;9.734;2023-02-28T11:17:28;1.63;;;1.55;;
75191;SDS011;63771;52.580;9.734;2023-02-28T11:19:56;2.17;;;2.00;;
75191;SDS011;63771;52.580;9.734;2023-02-28T11:22:26;2.80;;;1.35;;
75191;SDS011;63771;52.580;9.734;2023-02-28T11:24:55;1.77;;;1.67;;
75191;SDS011;63771;52.580;9.734;2023-02-28T11:29:54;3.15;;;1.58;;
75191;SDS011;63771;52.580;9.734;2023-02-28T11:32:20;1.70;;;1.60;;
75191;SDS011;63771;52.580;9.734;2023-02-28T11:35:00;2.45;;;1.00;;
75191;SDS011;63771;52.580;9.734;2023-02-28T11:39:54;1.13;;;1.02;;
75191;SDS011;63771;52.580;9.734;2023-02-28T11:42:27;1.20;;;1.15;;
75191;SDS011;63771;52.580;9.734;2023-02-28T11:47:34;1.63;;;1.58;;
75191;SDS011;63771;52.580;9.734;2023-02-28T11:50:22;1.77;;;1.67;;
75191;SDS011;63771;52.580;9.734;2023-02-28T11:53:05;2.58;;;2.15;;
75191;SDS011;63771;52.580;9.734;2023-02-28T11:55:45;2.50;;;1.38;;
75191;SDS011;63771;52.580;9.734;2023-02-28T12:07:43;2.33;;;2.10;;
75191;SDS011;63771;52.580;9.734;2023-02-28T12:10:21;2.35;;;2.25;;
75191;SDS011;63771;52.580;9.734;2023-02-28T12:15:46;1.70;;;1.60;;
75191;SDS011;63771;52.580;9.734;2023-02-28T12:18:37;2.72;;;1.52;;
75191;SDS011;63771;52.580;9.734;2023-02-28T12:27:00;0.98;;;0.98;;
75191;SDS011;63771;52.580;9.734;2023-02-28T12:29:32;1.48;;;1.17;;
75191;SDS011;63771;52.580;9.734;2023-02-28T12:32:18;1.50;;;1.40;;
75191;SDS011;63771;52.580;9.734;2023-02-28T12:34:50;1.92;;;1.83;;
75191;SDS011;63771;52.580;9.734;2023-02-28T12:37:22;1.90;;;1.63;;
75191;SDS011;63771;52.580;9.734;2023-02-28T12:39:55;1.98;;;1.50;;
75191;SDS011;63771;52.580;9.734;2023-02-28T12:42:29;2.95;;;1.63;;
75191;SDS011;63771;52.580;9.734;2023-02-28T12:48:00;1.95;;;1.25;;
75191;SDS011;63771;52.580;9.734;2023-02-28T12:50:29;1.50;;;1.42;;
75191;SDS011;63771;52.580;9.734;2023-02-28T12:53:18;1.35;;;1.25;;
75191;SDS011;63771;52.580;9.734;2023-02-28T12:58:33;1.70;;;1.65;;
75191;SDS011;63771;52.580;9.734;2023-02-28T13:09:20;3.40;;;1.30;;
75191;SDS011;63771;52.580;9.734;2023-02-28T13:11:49;0.98;;;0.98;;
75191;SDS011;63771;52.580;9.734;2023-02-28T13:19:32;2.00;;;1.13;;
75191;SDS011;63771;52.580;9.734;2023-02-28T13:29:40;1.93;;;1.83;;
75191;SDS011;63771;52.580;9.734;2023-02-28T13:39:48;2.13;;;1.25;;
75191;SDS011;63771;52.580;9.734;2023-02-28T13:47:27;1.63;;;1.52;;
75191;SDS011;63771;52.580;9.734;2023-02-28T14:03:57;2.05;;;1.40;;
75191;SDS011;63771;52.580;9.734;2023-02-28T14:11:48;1.30;;;1.30;;
75191;SDS011;63771;52.580;9.734;2023-02-28T14:17:01;1.52;;;1.45;;
75191;SDS011;63771;52.580;9.734;2023-02-28T14:19:29;1.70;;;1.70;;
75191;SDS011;63771;52.580;9.734;2023-02-28T14:27:35;1.25;;;1.10;;
75191;SDS011;63771;52.580;9.734;2023-02-28T14:33:16;2.22;;;1.65;;
75191;SDS011;63771;52.580;9.734;2023-02-28T14:38:33;5.15;;;2.50;;
75191;SDS011;63771;52.580;9.734;2023-02-28T14:41:06;2.20;;;1.60;;
75191;SDS011;63771;52.580;9.734;2023-02-28T14:43:47;1.50;;;1.40;;
75191;SDS011;63771;52.580;9.734;2023-02-28T14:46:14;1.98;;;1.88;;
75191;SDS011;63771;52.580;9.734;2023-02-28T14:48:41;1.50;;;1.50;;
75191;SDS011;63771;52.580;9.734;2023-02-28T14:51:17;1.13;;;1.13;;
75191;SDS011;63771;52.580;9.734;2023-02-28T14:53:44;1.30;;;1.20;;
75191;SDS011;63771;52.580;9.734;2023-02-28T14:56:26;1.35;;;1.30;;
75191;SDS011;63771;52.580;9.734;2023-02-28T14:59:02;1.75;;;1.65;;
75191;SDS011;63771;52.580;9.734;2023-02-28T15:01:28;1.83;;;1.10;;
75191;SDS011;63771;52.580;9.734;2023-02-28T15:03:58;0.90;;;0.90;;
75191;SDS011;63771;52.580;9.734;2023-02-28T15:06:26;1.05;;;1.05;;
75191;SDS011;63771;52.580;9.734;2023-02-28T15:09:08;0.95;;;0.82;;
75191;SDS011;63771;52.580;9.734;2023-02-28T15:11:47;0.95;;;0.95;;
75191;SDS011;63771;52.580;9.734;2023-02-28T15:14:15;1.52;;;1.25;;
75191;SDS011;63771;52.580;9.734;2023-02-28T15:16:44;1.38;;;0.98;;
75191;SDS011;63771;52.580;9.734;2023-02-28T15:19:17;1.10;;;1.10;;
75191;SDS011;63771;52.580;9.734;2023-02-28T15:21:52;1.50;;;1.10;;
75191;SDS011;63771;52.580;9.734;2023-02-28T15:27:17;1.00;;;1.00;;
75191;SDS011;63771;52.580;9.734;2023-02-28T15:29:51;1.38;;;1.05;;
75191;SDS011;63771;52.580;9.734;2023-02-28T15:32:23;0.95;;;0.95;;
75191;SDS011;63771;52.580;9.734;2023-02-28T15:34:54;1.17;;;0.90;;
75191;SDS011;63771;52.580;9.734;2023-02-28T15:40:07;1.10;;;1.10;;
75191;SDS011;63771;52.580;9.734;2023-02-28T15:43:04;0.88;;;0.88;;
75191;SDS011;63771;52.580;9.734;2023-02-28T15:48:13;1.67;;;1.67;;
75191;SDS011;63771;52.580;9.734;2023-02-28T15:50:42;1.10;;;1.00;;
75191;SDS011;63771;52.580;9.734;2023-02-28T15:53:12;1.30;;;1.00;;
75191;SDS011;63771;52.580;9.734;2023-02-28T15:55:40;1.40;;;1.40;;
75191;SDS011;63771;52.580;9.734;2023-02-28T15:58:08;1.25;;;1.20;;
75191;SDS011;63771;52.580;9.734;2023-02-28T16:00:37;1.65;;;1.55;;
75191;SDS011;63771;52.580;9.734;2023-02-28T16:03:22;2.25;;;2.05;;
75191;SDS011;63771;52.580;9.734;2023-02-28T16:08:45;3.55;;;1.83;;
75191;SDS011;63771;52.580;9.734;2023-02-28T16:11:13;1.40;;;1.30;;
75191;SDS011;63771;52.580;9.734;2023-02-28T16:13:38;2.07;;;1.97;;
75191;SDS011;63771;52.580;9.734;2023-02-28T16:16:04;1.97;;;1.87;;
75191;SDS011;63771;52.580;9.734;2023-02-28T16:18:29;5.07;;;1.80;;
75191;SDS011;63771;52.580;9.734;2023-02-28T16:20:55;1.70;;;1.60;;
75191;SDS011;63771;52.580;9.734;2023-02-28T16:23:20;1.80;;;1.70;;
75191;SDS011;63771;52.580;9.734;2023-02-28T16:25:45;2.00;;;1.80;;
75191;SDS011;63771;52.580;9.734;2023-02-28T16:28:21;1.92;;;1.50;;
75191;SDS011;63771;52.580;9.734;2023-02-28T16:30:51;2.22;;;1.40;;
75191;SDS011;63771;52.580;9.734;2023-02-28T16:33:17;1.90;;;1.73;;
75191;SDS011;63771;52.580;9.734;2023-02-28T16:35:42;2.00;;;1.90;;
75191;SDS011;63771;52.580;9.734;2023-02-28T16:38:08;3.67;;;1.83;;
75191;SDS011;63771;52.580;9.734;2023-02-28T16:40:33;3.57;;;2.73;;
75191;SDS011;63771;52.580;9.734;2023-02-28T16:43:00;10.75;;;3.85;;
75191;SDS011;63771;52.580;9.734;2023-02-28T16:45:30;11.20;;;4.40;;
75191;SDS011;63771;52.580;9.734;2023-02-28T16:47:56;11.03;;;3.10;;
75191;SDS011;63771;52.580;9.734;2023-02-28T16:50:22;6.78;;;3.80;;
75191;SDS011;63771;52.580;9.734;2023-02-28T16:52:52;5.00;;;3.58;;
75191;SDS011;63771;52.580;9.734;2023-02-28T16:55:17;9.80;;;4.00;;
75191;SDS011;63771;52.580;9.734;2023-02-28T16:57:50;12.32;;;4.68;;
75191;SDS011;63771;52.580;9.734;2023-02-28T17:00:17;12.55;;;4.57;;
75191;SDS011;63771;52.580;9.734;2023-02-28T17:02:43;11.77;;;4.35;;
75191;SDS011;63771;52.580;9.734;2023-02-28T17:05:10;21.27;;;6.80;;
75191;SDS011;63771;52.580;9.734;2023-02-28T17:07:36;10.93;;;4.70;;
75191;SDS011;63771;52.580;9.734;2023-02-28T17:10:04;3.03;;;2.10;;
75191;SDS011;63771;52.580;9.734;2023-02-28T17:12:55;2.67;;;2.47;;
75191;SDS011;63771;52.580;9.734;2023-02-28T17:15:20;1.67;;;1.58;;
75191;SDS011;63771;52.580;9.734;2023-02-28T17:17:46;1.98;;;1.83;;
75191;SDS011;63771;52.580;9.734;2023-02-28T17:20:18;9.35;;;1.60;;
75191;SDS011;63771;52.580;9.734;2023-02-28T17:22:52;98.47;;;47.78;;
75191;SDS011;63771;52.580;9.734;2023-02-28T17:25:18;61.90;;;30.52;;
75191;SDS011;63771;52.580;9.734;2023-02-28T17:27:44;24.90;;;12.43;;
75191;SDS011;63771;52.580;9.734;2023-02-28T17:32:43;4.63;;;4.15;;
75191;SDS011;63771;52.580;9.734;2023-02-28T17:35:09;3.90;;;2.72;;
75191;SDS011;63771;52.580;9.734;2023-02-28T17:37:34;5.75;;;2.60;;
75191;SDS011;63771;52.580;9.734;2023-02-28T17:40:00;3.90;;;2.03;;
75191;SDS011;63771;52.580;9.734;2023-02-28T17:42:25;2.67;;;2.13;;
75191;SDS011;63771;52.580;9.734;2023-02-28T17:44:51;2.20;;;2.00;;
75191;SDS011;63771;52.580;9.734;2023-02-28T17:47:16;8.30;;;3.40;;
75191;SDS011;63771;52.580;9.734;2023-02-28T17:49:41;3.70;;;3.03;;
75191;SDS011;63771;52.580;9.734;2023-02-28T17:52:07;6.47;;;3.25;;
75191;SDS011;63771;52.580;9.734;2023-02-28T17:54:33;2.45;;;2.25;;
75191;SDS011;63771;52.580;9.734;2023-02-28T17:56:58;2.80;;;2.58;;
75191;SDS011;63771;52.580;9.734;2023-02-28T17:59:24;4.60;;;1.98;;
75191;SDS011;63771;52.580;9.734;2023-02-28T18:01:49;3.15;;;2.65;;
75191;SDS011;63771;52.580;9.734;2023-02-28T18:04:14;2.97;;;2.43;;